Aviation WX

[Source: ADDS]
METAR
KDUJ 080253Z AUTO 11006KT 10SM OVC110 01/M05 A2986 RMK AO2 SLP125 T00111050 56014 =
TAF
KDUJ 072336Z 0800/0824 16005KT P6SM BKN250 FM082000 14005KT 6SM -RASN OVC035 FM082200 16005KT 2SM -SN OVC020 =